Decoded Metar for GCGM (LA GOMERA in SPAIN) (IATA:N/A) | Meteo·Mobile Aviation Weather
aviador You're here:

GCGM Decoded Metar

LA GOMERA in SPAIN
Report Time2019-07-16 09:30:00
UTC Time2019-07-16 10:03:04
Flight Rules vfr VFR
Wind200° at 03 kt
W.Decomp.*RWY 27: 1.3 kt HW 2.7 kt LCW
Visibility9999 m
Phenomena:N/A
Clouds:Few 020 Hf
Expected CloudBase > 1,600 ft AGL from Temp-Dew spread
CeilingNone
Temp23°C
Dew Point19°C (78% RH)
QNH1016 hPa
Raw Report
METAR GCGM 160930Z 20003KT 160V230 9999 FEW020 23/19 Q1016 RMK
R09/VRB02KT ARP/19003KT 140V230=

Extra information for GCGM:More info

Metar Taf Metar & Taf Last 4 Metars F.Rules Stats Wind Profile Meteogram Temp Stats Airport Information Weather charts Add Link Nearby VenuesMetar ALERT Operation Metar Decoded Social comments